TFM - Tactical Decision Aid
ID: Runway Winds: CIG/VIS Threshold:

KSAV - Savannah Intl, GA, US

Updated at: 1339 UTC 10 Aug 2022
Latest TAF at: 1120 UTC 10 Aug 2022

TAF Board

Time1253Z 10/14Z 10/15Z 10/16Z 10/17Z 10/18Z 10/19Z 10/20Z 10/21Z 10/22Z 10/23Z 11/00Z 11/01Z 11/02Z>>
Type OBS PRVL PRVL PRVL PRVL PRVL PRVL PRVL PRVL PRVL PRVL PRVL PRVL PRVL
VIS 10 >6 >6 >6 >6 >6 >6 >6 >6 >6 >6 >6 >6 >6
CIG 250 250 250 250 250 50 50 50 50 50 150 150 150 150
Cover OVC BKN BKN BKN BKN BKN BKN BKN BKN BKN BKN BKN BKN BKN
FltCat VFR VFR VFR VFR VFR VFR VFR VFR VFR VFR VFR VFR VFR VFR
WX -- -- -- -- -- VCSH VCSH VCSH VCSH VCSH -- -- -- --
WDir 190 220 220 220 220 190 190 190 190 190 190 190 190 190
WSpd 3 6 6 6 6 9 9 9 9 9 6 6 6 6
WGst -- -- -- -- -- -- -- -- -- -- -- -- -- --
WSHgt -- -- -- -- -- -- -- -- -- -- -- -- -- --
WSDir -- -- -- -- -- -- -- -- -- -- -- -- -- --
WSSpd -- -- -- -- -- -- -- -- -- -- -- -- -- --

TDA Impact Legend

  None Marginal Slight Moderate High
Visibility (sm) >5 3≤X≤5 2.25≤X<3 0.5≤X<2.25 <0.5
Ceiling (100 ft) >30 10≤X≤30 8≤X<10 2≤X<8 <2
Wind Speed (kt) <15 15≤X<25 25≤X<30 ≥30
Wind Gust (kt) <15 15≤X<25 25≤X<35 ≥35
Weather No Wx Reported VCTS -TS,-FZRA TS,FZRA +TS,+FZRA
TAF
KSAV 101120Z 1012/1112 22006KT P6SM FEW035 BKN250
  FM101800 19009KT P6SM VCSH BKN050
  FM102300 19006KT P6SM SCT060 BKN150


METAR
KSAV 101253Z 19003KT 10SM FEW120 OVC250 27/22 A3021 RMK AO2 SLP230 T02670217
KSAV 101153Z 00000KT 10SM FEW040 OVC250 25/21 A3021 RMK AO2 SLP228 T02500211 10250 20228 53014
KSAV 101053Z 00000KT 10SM BKN250 23/21 A3019 RMK AO2 SLP222 T02280211

Radar Display
Forecast Discussion